createdAt,value
2018-12-24T01:22:23.804Z,101331.93
2018-12-24T01:26:29.802Z,101341.84
2018-12-24T01:30:35.838Z,101350.02
2018-12-24T01:34:42.008Z,101349.61
2018-12-24T01:39:04.613Z,101372.27
2018-12-24T01:43:01.484Z,101377.42
2018-12-24T01:51:45.049Z,101396.64
2018-12-24T01:55:50.475Z,101402.66
2018-12-24T01:59:55.919Z,101413.98
2018-12-24T02:04:01.325Z,101418.81
2018-12-24T02:08:06.813Z,101422.42
2018-12-24T02:12:12.658Z,101436.28
2018-12-24T02:16:25.635Z,101434.11
2018-12-24T02:20:31.213Z,101435.88
2018-12-24T02:24:36.880Z,101453.63
2018-12-24T02:28:42.423Z,101461.56
2018-12-24T02:32:47.903Z,101456.45
2018-12-24T02:36:53.361Z,101468.97
2018-12-24T02:40:58.849Z,101476.05
2018-12-24T02:45:04.331Z,101476.98
2018-12-24T02:49:09.803Z,101499.48
2018-12-24T02:53:15.276Z,101504.23
2018-12-24T02:57:26.188Z,101502.14
2018-12-24T03:01:31.689Z,101512.41
2018-12-24T03:05:37.088Z,101517.69
2018-12-24T03:09:42.600Z,101521.16
2018-12-24T03:13:47.964Z,101518.99
2018-12-24T03:17:53.251Z,101532.05
2018-12-24T03:22:39.501Z,101536.83
2018-12-24T03:26:45.004Z,101558.52
2018-12-24T03:30:50.551Z,101557.20
2018-12-24T03:34:56.022Z,101561.21
2018-12-24T03:39:01.539Z,101566.86
2018-12-24T03:43:27.915Z,101582.61
2018-12-24T03:47:37.966Z,101583.95
2018-12-24T03:51:43.548Z,101590.05
2018-12-24T03:55:49.128Z,101602.13
2018-12-24T03:59:54.575Z,101609.94
2018-12-24T04:04:00.240Z,101621.31
2018-12-24T04:08:06.023Z,101633.58
2018-12-24T04:12:11.381Z,101636.61
2018-12-24T04:16:16.761Z,101644.50
2018-12-24T04:20:22.172Z,101653.70
2018-12-24T04:24:27.624Z,101655.46
2018-12-24T04:28:33.082Z,101662.45
2018-12-24T04:32:57.658Z,101664.17
2018-12-24T04:37:03.222Z,101672.92
2018-12-24T04:41:27.737Z,101679.06
2018-12-24T04:45:33.531Z,101692.48
2018-12-24T04:49:38.926Z,101697.80
2018-12-24T04:53:44.342Z,101717.77
2018-12-24T04:57:50.027Z,101725.52
2018-12-24T05:01:55.868Z,101730.31
2018-12-24T05:06:01.622Z,101737.86
2018-12-24T05:10:07.117Z,101749.16
2018-12-24T05:14:12.801Z,101760.87
2018-12-24T05:18:18.499Z,101773.52
2018-12-24T05:22:23.830Z,101791.36
2018-12-24T05:26:29.307Z,101792.30
2018-12-24T05:30:34.747Z,101805.35
2018-12-24T05:34:40.251Z,101811.38
2018-12-24T05:38:45.746Z,101820.09
2018-12-24T05:42:51.232Z,101818.48
2018-12-24T05:46:56.672Z,101835.02
2018-12-24T05:51:02.210Z,101841.19
2018-12-24T05:55:07.778Z,101849.87
2018-12-24T05:59:13.253Z,101867.78
2018-12-24T06:03:18.718Z,101877.75
2018-12-24T06:07:24.116Z,101911.82
2018-12-24T06:11:30.049Z,101920.98
2018-12-24T06:15:35.513Z,101934.14
2018-12-24T06:19:40.913Z,101939.38
2018-12-24T06:23:46.311Z,101942.48
2018-12-24T06:27:51.766Z,101961.16
2018-12-24T06:31:57.235Z,101968.66
2018-12-24T06:36:02.708Z,101979.13
2018-12-24T06:40:08.120Z,101989.67
2018-12-24T06:44:13.597Z,101991.78
2018-12-24T06:48:19.272Z,102003.20
2018-12-24T06:52:24.763Z,102001.92
2018-12-24T06:56:30.286Z,102002.77
2018-12-24T07:00:35.754Z,102017.66
2018-12-24T07:04:41.146Z,102022.54
2018-12-24T07:08:46.619Z,102025.07
2018-12-24T07:13:11.013Z,102026.86
2018-12-24T07:17:16.384Z,102036.02
2018-12-24T07:21:21.856Z,102043.90
2018-12-24T07:25:38.697Z,102045.99
2018-12-24T07:29:44.086Z,102064.32
2018-12-24T07:33:49.464Z,102074.52
2018-12-24T07:37:54.803Z,102081.28
2018-12-24T07:42:00.210Z,102097.44
2018-12-24T07:46:05.743Z,102102.91
2018-12-24T07:54:48.541Z,102110.95
2018-12-24T07:58:54.184Z,102111.27
2018-12-24T08:02:59.661Z,102012.70
2018-12-24T08:07:05.105Z,102107.81
2018-12-24T08:15:34.834Z,102119.20
2018-12-24T08:19:40.237Z,102137.51
2018-12-24T08:23:45.574Z,102141.23
2018-12-24T08:28:10.103Z,102154.48
2018-12-24T08:32:15.604Z,102161.91
2018-12-24T08:36:21.028Z,102177.61
2018-12-24T08:40:26.467Z,102186.20
2018-12-24T08:44:31.953Z,102194.41
2018-12-24T08:48:39.100Z,102208.20
2018-12-24T08:52:44.564Z,102213.80
2018-12-24T08:56:50.245Z,102217.09
2018-12-24T09:00:55.711Z,102225.17
2018-12-24T09:05:01.166Z,102234.66
2018-12-24T09:09:12.346Z,102246.31
2018-12-24T09:13:17.750Z,102257.11
2018-12-24T09:17:23.077Z,102271.55
2018-12-24T09:21:28.588Z,102286.96
2018-12-24T09:25:34.065Z,102298.27
2018-12-24T09:29:39.541Z,102298.27
2018-12-24T09:34:04.033Z,102311.22
2018-12-24T09:38:14.617Z,102328.07
2018-12-24T09:42:19.984Z,102331.19
2018-12-24T09:51:02.358Z,102352.55
2018-12-24T09:55:07.884Z,102358.66
2018-12-24T09:59:13.491Z,102363.14
2018-12-24T10:04:02.825Z,102375.17
2018-12-24T10:08:13.571Z,102375.08
2018-12-24T10:12:18.957Z,102385.66
2018-12-24T10:16:24.355Z,102384.28
2018-12-24T10:20:29.677Z,102381.14
2018-12-24T10:24:34.994Z,102389.22
2018-12-24T10:28:40.418Z,102392.52
2018-12-24T10:32:45.867Z,102391.44
2018-12-24T10:36:51.351Z,102388.28
2018-12-24T10:41:10.294Z,102398.65
2018-12-24T10:45:16.746Z,102396.71
2018-12-24T10:49:42.171Z,102394.44
2018-12-24T10:53:47.631Z,102401.53
2018-12-24T10:57:53.059Z,102405.02
2018-12-24T11:01:58.456Z,102401.32
2018-12-24T11:06:03.835Z,102411.31
2018-12-24T11:10:12.015Z,102411.02
2018-12-24T11:14:17.295Z,102406.02
2018-12-24T11:18:22.748Z,102410.15
2018-12-24T11:22:28.204Z,102410.64
2018-12-24T11:26:33.694Z,102412.59
2018-12-24T11:30:39.169Z,102415.67
2018-12-24T11:34:44.682Z,102415.34
2018-12-24T11:38:50.159Z,102415.69
2018-12-24T11:42:55.660Z,102425.09
2018-12-24T11:47:01.142Z,102422.22
2018-12-24T11:51:06.560Z,102418.33
2018-12-24T11:55:14.503Z,102415.64
2018-12-24T11:59:20.901Z,102430.81
2018-12-24T12:03:26.867Z,102429.49
2018-12-24T12:07:32.278Z,102427.94
2018-12-24T12:11:37.645Z,102435.28
2018-12-24T12:15:43.172Z,102428.19
2018-12-24T12:19:48.483Z,102430.65
2018-12-24T12:23:53.898Z,102527.98
2018-12-24T12:27:59.639Z,102437.88
2018-12-24T12:32:05.093Z,102449.37
2018-12-24T12:36:10.424Z,102450.34
2018-12-24T12:40:15.830Z,102462.43
2018-12-24T12:44:21.324Z,102380.50
2018-12-24T12:48:45.681Z,102468.80
2018-12-24T12:53:02.371Z,102474.67
2018-12-24T12:57:07.824Z,102478.33
2018-12-24T13:01:13.326Z,102491.27
2018-12-24T13:05:18.715Z,102495.52
2018-12-24T13:09:24.386Z,102491.13
2018-12-24T13:13:36.675Z,102494.87
2018-12-24T13:22:04.470Z,102492.72
2018-12-24T13:26:16.477Z,102502.00
2018-12-24T13:34:39.164Z,102507.05
2018-12-24T13:38:44.901Z,102501.62
2018-12-24T13:42:50.239Z,102509.64
2018-12-24T13:46:55.644Z,102512.79
2018-12-24T13:51:19.984Z,102518.23
2018-12-24T13:55:25.311Z,102525.35
2018-12-24T13:59:30.849Z,102532.94
2018-12-24T14:03:37.958Z,102539.97
2018-12-24T14:07:43.279Z,102538.73
2018-12-24T14:11:48.691Z,102417.63
2018-12-24T14:15:54.204Z,102551.73
2018-12-24T14:19:59.680Z,102568.22
2018-12-24T14:24:05.183Z,102558.14
2018-12-24T14:28:10.702Z,102573.67
2018-12-24T14:32:16.153Z,102571.74
2018-12-24T14:36:21.606Z,102598.92
2018-12-24T14:40:45.934Z,102600.13
2018-12-24T14:44:51.311Z,102608.17
2018-12-24T14:48:56.712Z,102608.77
2018-12-24T14:53:02.165Z,102610.52
2018-12-24T14:57:07.559Z,102622.00
2018-12-24T15:01:13.219Z,102633.70
2018-12-24T15:05:18.927Z,102640.94
2018-12-24T15:09:43.346Z,102639.86
2018-12-24T15:13:48.680Z,102646.91
2018-12-24T15:17:54.228Z,102644.68
2018-12-24T15:21:59.751Z,102643.23
2018-12-24T15:26:05.236Z,102655.03
2018-12-24T15:30:10.775Z,102662.77
2018-12-24T15:34:16.285Z,102665.77
2018-12-24T15:38:21.681Z,102660.46
2018-12-24T15:42:27.063Z,102670.34
2018-12-24T15:46:32.504Z,102667.88
2018-12-24T15:50:37.882Z,102644.83
2018-12-24T15:54:43.275Z,102643.28
2018-12-24T15:58:48.593Z,102651.91
2018-12-24T16:02:53.978Z,102642.06
2018-12-24T16:06:59.386Z,102655.09
2018-12-24T16:11:04.781Z,102658.74
2018-12-24T16:15:10.273Z,102652.70
2018-12-24T16:19:15.696Z,102652.30
2018-12-24T16:23:21.177Z,102661.84
2018-12-24T16:27:26.664Z,102657.45
2018-12-24T16:31:32.166Z,102667.48
2018-12-24T16:35:37.695Z,102681.91
2018-12-24T16:39:43.295Z,102687.98
2018-12-24T16:44:08.008Z,102704.06
2018-12-24T16:48:13.453Z,102696.67
2018-12-24T16:52:18.966Z,102704.78
2018-12-24T16:56:24.459Z,102697.97
2018-12-24T17:00:29.941Z,102691.90
2018-12-24T17:04:35.556Z,102675.81
2018-12-24T17:08:41.230Z,102682.33
2018-12-24T17:12:46.693Z,102700.48
2018-12-24T17:16:52.198Z,102719.37
2018-12-24T17:20:58.020Z,102721.34
2018-12-24T17:25:03.580Z,102727.08
2018-12-24T17:29:10.598Z,102715.39
2018-12-24T17:33:16.072Z,102731.84
2018-12-24T17:37:21.618Z,102735.14
2018-12-24T17:41:27.124Z,102739.84
2018-12-24T17:45:32.590Z,102747.99
2018-12-24T17:49:38.113Z,102754.20
2018-12-24T17:53:43.568Z,102756.45
2018-12-24T17:57:49.366Z,102769.39
2018-12-24T18:01:55.031Z,102768.05
2018-12-24T18:06:00.547Z,102762.65
2018-12-24T18:10:06.067Z,102764.61
2018-12-24T18:14:30.575Z,102772.66
2018-12-24T18:18:36.009Z,102783.38
2018-12-24T18:22:41.407Z,102769.44
2018-12-24T18:26:46.820Z,102781.66
2018-12-24T18:30:52.308Z,102804.67
2018-12-24T18:34:58.394Z,102799.02
2018-12-24T18:39:04.718Z,102807.32
2018-12-24T18:43:10.520Z,102804.69
2018-12-24T18:47:16.018Z,102807.31
2018-12-24T18:51:21.575Z,102834.11
2018-12-24T18:55:26.959Z,102831.30
2018-12-24T18:59:32.452Z,102824.36
2018-12-24T19:03:37.970Z,102846.80
2018-12-24T19:07:49.419Z,102851.30
2018-12-24T19:11:54.930Z,102849.38
2018-12-24T19:16:00.459Z,102849.63
2018-12-24T19:20:07.529Z,102846.97
2018-12-24T19:24:13.058Z,102854.69
2018-12-24T19:28:18.798Z,102863.98
2018-12-24T19:32:24.247Z,102859.44
2018-12-24T19:36:29.766Z,102870.13
2018-12-24T19:40:35.358Z,102870.98
2018-12-24T19:44:40.710Z,102880.04
2018-12-24T19:48:46.050Z,102887.20
2018-12-24T19:52:51.630Z,102875.48
2018-12-24T19:57:08.443Z,102874.21
2018-12-24T20:01:13.809Z,102874.21
2018-12-24T20:05:38.363Z,102871.16
2018-12-24T20:09:43.954Z,102879.45
2018-12-24T20:13:49.327Z,102879.85
2018-12-24T20:17:58.293Z,102870.94
2018-12-24T20:22:21.209Z,102877.37
2018-12-24T20:26:26.721Z,102887.22
2018-12-24T20:30:32.090Z,102882.95
2018-12-24T20:34:37.690Z,102884.00
2018-12-24T20:38:43.362Z,102883.45
2018-12-24T20:42:48.793Z,102888.09
2018-12-24T20:46:54.196Z,102891.61
2018-12-24T20:50:59.667Z,102892.94
2018-12-24T20:55:05.182Z,102896.78
2018-12-24T20:59:10.716Z,102907.09
2018-12-24T21:03:16.233Z,102908.17
2018-12-24T21:07:21.657Z,102907.13
2018-12-24T21:11:27.173Z,102903.33
2018-12-24T21:15:32.681Z,102907.91
2018-12-24T21:19:38.237Z,102906.92
2018-12-24T21:23:44.141Z,102904.25
2018-12-24T21:27:49.668Z,102908.20
2018-12-24T21:31:55.166Z,102889.61
2018-12-24T21:36:00.747Z,102889.59
2018-12-24T21:44:38.515Z,102892.17
2018-12-24T21:48:44.059Z,102887.87
2018-12-24T21:52:49.558Z,102885.97
2018-12-24T21:56:55.104Z,102890.08
2018-12-24T22:01:00.658Z,102875.91
2018-12-24T22:05:06.243Z,102887.82
2018-12-24T22:09:30.876Z,102884.70
2018-12-24T22:13:36.347Z,102891.44
2018-12-24T22:17:41.888Z,102899.03
2018-12-24T22:21:47.449Z,102896.30
2018-12-24T22:25:53.004Z,102899.98
2018-12-24T22:29:58.557Z,102896.73
2018-12-24T22:34:04.064Z,102888.69
2018-12-24T22:38:09.586Z,102902.67
2018-12-24T22:42:15.211Z,102911.80
2018-12-24T22:46:20.664Z,102917.24
2018-12-24T22:50:26.062Z,102914.02
2018-12-24T22:54:31.535Z,102914.72
2018-12-24T22:58:37.083Z,102908.40
2018-12-24T23:02:42.558Z,102897.91
2018-12-24T23:06:48.044Z,102898.02
2018-12-24T23:10:53.528Z,102895.38
2018-12-24T23:14:59.000Z,102898.84
2018-12-24T23:19:04.491Z,102895.17
2018-12-24T23:23:09.964Z,102889.12
2018-12-24T23:27:15.573Z,102902.88
2018-12-24T23:31:21.082Z,102891.97
2018-12-24T23:35:26.667Z,102888.88
2018-12-24T23:39:32.173Z,102883.71
2018-12-24T23:43:39.308Z,102880.20
2018-12-24T23:47:56.136Z,102884.06
2018-12-24T23:52:01.950Z,102881.64
2018-12-24T23:56:07.435Z,102874.92
